createdAt,value
2017-11-03T00:01:06.780Z,11.38
2017-11-03T00:03:34.318Z,8.40
2017-11-03T00:06:01.860Z,10.32
2017-11-03T00:08:29.391Z,9.85
2017-11-03T00:10:57.717Z,9.00
2017-11-03T00:13:25.244Z,9.20
2017-11-03T00:15:53.605Z,10.48
2017-11-03T00:18:21.134Z,9.68
2017-11-03T00:20:48.677Z,8.95
2017-11-03T00:23:16.222Z,10.32
2017-11-03T00:25:43.773Z,10.68
2017-11-03T00:28:11.305Z,9.80
2017-11-03T00:30:39.601Z,9.70
2017-11-03T00:33:07.163Z,9.80
2017-11-03T00:35:35.459Z,9.95
2017-11-03T00:38:03.005Z,9.57
2017-11-03T00:40:31.348Z,11.48
2017-11-03T00:43:00.753Z,9.80
2017-11-03T00:45:28.285Z,9.90
2017-11-03T00:47:55.818Z,10.57
2017-11-03T00:50:23.369Z,9.25
2017-11-03T00:52:50.922Z,8.65
2017-11-03T00:55:18.449Z,9.95
2017-11-03T00:57:46.004Z,9.45
2017-11-03T01:00:13.552Z,9.40
2017-11-03T01:02:41.084Z,8.88
2017-11-03T01:05:08.650Z,10.07
2017-11-03T01:07:36.206Z,8.65
2017-11-03T01:10:03.757Z,9.95
2017-11-03T01:12:31.297Z,10.32
2017-11-03T01:14:59.613Z,9.75
2017-11-03T01:17:27.149Z,8.98
2017-11-03T01:19:54.707Z,10.65
2017-11-03T01:22:22.245Z,9.00
2017-11-03T01:24:49.777Z,10.10
2017-11-03T01:27:18.101Z,9.20
2017-11-03T01:29:45.685Z,10.35
2017-11-03T01:32:13.233Z,9.82
2017-11-03T01:34:40.792Z,10.05
2017-11-03T01:37:08.339Z,10.60
2017-11-03T01:39:35.890Z,9.68
2017-11-03T01:42:03.457Z,9.70
2017-11-03T01:44:30.987Z,9.77
2017-11-03T01:46:59.310Z,10.30
2017-11-03T01:49:26.836Z,10.93
2017-11-03T01:51:54.406Z,12.07
2017-11-03T01:54:21.946Z,11.00
2017-11-03T01:56:50.290Z,11.60
2017-11-03T01:59:17.832Z,10.45
2017-11-03T02:01:45.423Z,11.05
2017-11-03T02:04:12.961Z,11.90
2017-11-03T02:06:40.522Z,10.90
2017-11-03T02:09:08.053Z,11.00
2017-11-03T02:11:35.609Z,10.25
2017-11-03T02:14:03.137Z,10.15
2017-11-03T02:16:31.454Z,11.70
2017-11-03T02:18:58.992Z,9.13
2017-11-03T02:21:26.546Z,11.30
2017-11-03T02:23:54.084Z,9.60
2017-11-03T02:26:22.383Z,10.73
2017-11-03T02:28:49.943Z,10.85
2017-11-03T02:31:17.481Z,11.90
2017-11-03T02:33:45.815Z,9.45
2017-11-03T02:36:13.359Z,10.20
2017-11-03T02:38:40.885Z,9.68
2017-11-03T02:41:09.198Z,11.55
2017-11-03T02:43:36.731Z,10.93
2017-11-03T02:46:05.054Z,10.57
2017-11-03T02:48:32.595Z,11.10
2017-11-03T02:51:00.141Z,9.82
2017-11-03T02:53:27.673Z,10.98
2017-11-03T02:55:55.997Z,10.38
2017-11-03T02:58:23.521Z,8.70
2017-11-03T03:00:51.861Z,9.30
2017-11-03T03:03:19.402Z,9.63
2017-11-03T03:05:46.930Z,10.15
2017-11-03T03:08:14.420Z,12.23
2017-11-03T03:10:41.972Z,12.37
2017-11-03T03:13:09.489Z,10.43
2017-11-03T03:15:37.780Z,11.23
2017-11-03T03:18:06.093Z,10.55
2017-11-03T03:20:33.641Z,11.60
2017-11-03T03:23:01.188Z,10.60
2017-11-03T03:25:28.721Z,11.15
2017-11-03T03:27:57.053Z,12.05
2017-11-03T03:30:24.601Z,11.70
2017-11-03T03:32:52.162Z,11.88
2017-11-03T03:35:19.685Z,10.35
2017-11-03T03:37:48.029Z,11.00
2017-11-03T03:40:15.569Z,10.82
2017-11-03T03:42:43.126Z,9.30
2017-11-03T03:45:10.698Z,10.50
2017-11-03T03:47:38.241Z,9.85
2017-11-03T03:50:05.802Z,10.15
2017-11-03T03:52:33.359Z,10.05
2017-11-03T03:55:00.882Z,9.70
2017-11-03T03:57:29.203Z,10.15
2017-11-03T03:59:56.728Z,10.45
2017-11-03T04:02:24.280Z,10.75
2017-11-03T04:04:51.806Z,9.50
2017-11-03T04:07:19.340Z,10.52
2017-11-03T04:09:46.886Z,11.05
2017-11-03T04:12:14.441Z,11.35
2017-11-03T04:14:41.980Z,9.38
2017-11-03T04:17:09.505Z,10.68
2017-11-03T04:19:37.061Z,10.95
2017-11-03T04:22:04.595Z,13.60
2017-11-03T04:24:32.155Z,12.95
2017-11-03T04:26:59.802Z,13.65
2017-11-03T04:29:27.341Z,11.45
2017-11-03T04:31:54.932Z,12.40
2017-11-03T04:34:22.480Z,11.52
2017-11-03T04:36:50.039Z,11.73
2017-11-03T04:39:17.565Z,11.20
2017-11-03T04:41:45.869Z,10.77
2017-11-03T04:44:13.409Z,10.93
2017-11-03T04:46:41.722Z,10.85
2017-11-03T04:49:09.255Z,11.05
2017-11-03T04:51:36.805Z,10.50
2017-11-03T04:54:04.362Z,14.40
2017-11-03T04:56:32.659Z,13.93
2017-11-03T04:59:00.230Z,12.60
2017-11-03T05:01:27.753Z,12.30
2017-11-03T05:03:56.065Z,12.07
2017-11-03T05:06:23.608Z,10.93
2017-11-03T05:08:51.140Z,10.80
2017-11-03T05:11:19.458Z,10.32
2017-11-03T05:13:46.984Z,11.40
2017-11-03T05:16:15.404Z,11.32
2017-11-03T05:18:42.931Z,10.32
2017-11-03T05:21:11.254Z,10.98
2017-11-03T05:23:38.789Z,11.23
2017-11-03T05:26:06.350Z,10.50
2017-11-03T05:28:33.897Z,11.12
2017-11-03T05:31:01.440Z,10.35
2017-11-03T05:33:29.733Z,10.90
2017-11-03T05:35:57.280Z,11.85
2017-11-03T05:38:25.615Z,12.27
2017-11-03T05:40:53.146Z,11.10
2017-11-03T05:43:20.702Z,12.00
2017-11-03T05:45:48.249Z,13.50
2017-11-03T05:48:16.569Z,10.88
2017-11-03T05:50:44.123Z,11.68
2017-11-03T05:53:11.664Z,11.85
2017-11-03T05:55:39.213Z,11.50
2017-11-03T05:58:06.772Z,11.52
2017-11-03T06:00:34.308Z,11.35
2017-11-03T06:03:02.637Z,11.30
2017-11-03T06:05:30.165Z,11.70
2017-11-03T06:07:57.719Z,10.77
2017-11-03T06:10:25.253Z,12.32
2017-11-03T06:12:53.572Z,11.68
2017-11-03T06:15:21.117Z,11.95
2017-11-03T06:17:48.668Z,12.10
2017-11-03T06:20:16.979Z,13.18
2017-11-03T06:22:44.534Z,14.13
2017-11-03T06:25:12.081Z,15.90
2017-11-03T06:27:39.657Z,14.73
2017-11-03T06:30:07.216Z,13.10
2017-11-03T06:32:35.537Z,12.90
2017-11-03T06:35:03.090Z,13.57
2017-11-03T06:37:30.645Z,14.13
2017-11-03T06:39:59.048Z,14.52
2017-11-03T06:42:27.362Z,14.40
2017-11-03T06:44:54.906Z,15.02
2017-11-03T06:47:22.443Z,15.73
2017-11-03T06:49:51.218Z,14.52
2017-11-03T06:52:18.762Z,16.02
2017-11-03T06:54:46.315Z,15.98
2017-11-03T06:57:13.892Z,15.10
2017-11-03T06:59:41.434Z,17.23
2017-11-03T07:02:09.002Z,16.27
2017-11-03T07:04:36.579Z,15.48
2017-11-03T07:07:04.143Z,15.73
2017-11-03T07:09:31.685Z,14.87
2017-11-03T07:11:59.244Z,15.90
2017-11-03T07:14:26.869Z,16.12
2017-11-03T07:16:55.277Z,15.43
2017-11-03T07:19:22.826Z,15.73
2017-11-03T07:21:50.401Z,13.55
2017-11-03T07:24:17.957Z,15.30
2017-11-03T07:26:45.515Z,13.23
2017-11-03T07:29:13.072Z,14.07
2017-11-03T07:31:40.637Z,14.65
2017-11-03T07:34:08.300Z,14.00
2017-11-03T07:36:35.849Z,14.52
2017-11-03T07:39:03.409Z,12.13
2017-11-03T07:41:30.944Z,12.77
2017-11-03T07:43:58.480Z,12.48
2017-11-03T07:46:26.808Z,14.73
2017-11-03T07:48:54.349Z,13.70
2017-11-03T07:51:21.888Z,13.13
2017-11-03T07:53:49.415Z,14.35
2017-11-03T07:56:16.980Z,13.50
2017-11-03T07:58:45.304Z,13.40
2017-11-03T08:01:12.967Z,13.48
2017-11-03T08:03:40.638Z,12.98
2017-11-03T08:06:08.189Z,13.05
2017-11-03T08:08:35.754Z,13.55
2017-11-03T08:11:03.326Z,14.07
2017-11-03T08:13:30.884Z,14.43
2017-11-03T08:15:58.422Z,14.20
2017-11-03T08:18:26.010Z,15.57
2017-11-03T08:20:53.549Z,15.48
2017-11-03T08:23:21.101Z,15.75
2017-11-03T08:25:48.649Z,17.05
2017-11-03T08:28:16.173Z,14.98
2017-11-03T08:30:43.739Z,16.20
2017-11-03T08:33:12.046Z,15.07
2017-11-03T08:35:39.625Z,15.73
2017-11-03T08:38:07.159Z,17.77
2017-11-03T08:40:35.486Z,16.10
2017-11-03T08:43:03.036Z,15.02
2017-11-03T08:45:30.570Z,15.07
2017-11-03T08:47:58.119Z,16.02
2017-11-03T08:50:25.652Z,14.60
2017-11-03T08:52:53.976Z,15.63
2017-11-03T08:55:21.539Z,14.65
2017-11-03T08:57:49.084Z,13.25
2017-11-03T09:00:16.638Z,13.50
2017-11-03T09:02:44.177Z,14.02
2017-11-03T09:05:12.510Z,13.82
2017-11-03T09:07:40.073Z,13.00
2017-11-03T09:10:08.636Z,13.65
2017-11-03T09:12:36.160Z,12.13
2017-11-03T09:15:04.491Z,13.25
2017-11-03T09:17:32.033Z,14.40
2017-11-03T09:19:59.570Z,13.50
2017-11-03T09:22:27.154Z,13.27
2017-11-03T09:24:54.718Z,12.50
2017-11-03T09:27:22.267Z,12.70
2017-11-03T09:29:49.813Z,11.85
2017-11-03T09:32:17.365Z,11.88
2017-11-03T09:34:45.702Z,13.95
2017-11-03T09:37:13.275Z,12.18
2017-11-03T09:39:40.841Z,12.07
2017-11-03T09:42:09.159Z,12.30
2017-11-03T09:44:36.718Z,12.00
2017-11-03T09:47:04.298Z,11.55
2017-11-03T09:49:31.862Z,11.93
2017-11-03T09:52:00.379Z,12.68
2017-11-03T09:54:27.942Z,11.70
2017-11-03T09:56:59.731Z,11.68
2017-11-03T09:59:27.290Z,11.30
2017-11-03T10:01:55.056Z,12.02
2017-11-03T10:04:22.820Z,12.18
2017-11-03T10:06:50.365Z,10.43
2017-11-03T10:09:17.954Z,11.05
2017-11-03T10:11:45.612Z,10.10
2017-11-03T10:14:13.883Z,10.63
2017-11-03T10:16:41.448Z,11.05
2017-11-03T10:19:09.675Z,11.65
2017-11-03T10:21:37.276Z,10.75
2017-11-03T10:24:04.816Z,9.18
2017-11-03T10:26:33.152Z,9.05
2017-11-03T10:29:00.719Z,10.90
2017-11-03T10:31:28.301Z,10.27
2017-11-03T10:33:55.862Z,9.63
2017-11-03T10:36:23.428Z,10.60
2017-11-03T10:38:50.978Z,10.90
2017-11-03T10:41:18.526Z,9.47
2017-11-03T10:43:46.089Z,8.25
2017-11-03T10:46:13.649Z,9.17
2017-11-03T10:48:41.230Z,8.50
2017-11-03T10:51:08.804Z,8.50
2017-11-03T10:53:36.459Z,9.10
2017-11-03T10:56:03.994Z,8.73
2017-11-03T10:58:31.558Z,9.17
2017-11-03T11:00:59.149Z,8.43
2017-11-03T11:03:26.709Z,9.93
2017-11-03T11:05:54.254Z,8.23
2017-11-03T11:08:21.788Z,8.30
2017-11-03T11:10:49.354Z,8.00
2017-11-03T11:13:18.039Z,7.57
2017-11-03T11:15:45.593Z,9.33
2017-11-03T11:18:13.908Z,7.33
2017-11-03T11:20:41.467Z,7.93
2017-11-03T11:23:09.001Z,6.77
2017-11-03T11:25:37.333Z,8.00
2017-11-03T11:28:05.199Z,8.27
2017-11-03T11:30:32.888Z,7.87
2017-11-03T11:33:00.445Z,8.00
2017-11-03T11:35:27.994Z,9.20
2017-11-03T11:37:55.550Z,7.60
2017-11-03T11:40:23.088Z,7.37
2017-11-03T11:42:50.740Z,7.60
2017-11-03T11:45:18.273Z,7.87
2017-11-03T11:47:45.849Z,8.75
2017-11-03T11:50:13.419Z,7.80
2017-11-03T11:52:40.960Z,8.37
2017-11-03T11:55:08.529Z,8.05
2017-11-03T11:57:36.092Z,8.63
2017-11-03T12:00:03.677Z,8.15
2017-11-03T12:02:31.220Z,6.73
2017-11-03T12:04:58.784Z,7.72
2017-11-03T12:07:26.313Z,6.80
2017-11-03T12:09:53.887Z,7.23
2017-11-03T12:12:21.429Z,6.12
2017-11-03T12:14:48.990Z,6.45
2017-11-03T12:17:16.525Z,7.18
2017-11-03T12:19:44.858Z,8.03
2017-11-03T12:22:12.397Z,7.10
2017-11-03T12:24:39.931Z,6.80
2017-11-03T12:27:08.257Z,7.47
2017-11-03T12:29:35.915Z,6.53
2017-11-03T12:32:03.462Z,6.10
2017-11-03T12:34:30.994Z,5.70
2017-11-03T12:36:59.323Z,7.00
2017-11-03T12:39:26.854Z,6.27
2017-11-03T12:41:54.393Z,6.53
2017-11-03T12:44:22.717Z,7.33
2017-11-03T12:46:50.295Z,5.67
2017-11-03T12:49:17.872Z,5.60
2017-11-03T12:51:45.437Z,5.97
2017-11-03T12:54:13.785Z,5.75
2017-11-03T12:56:41.353Z,5.93
2017-11-03T12:59:08.910Z,5.87
2017-11-03T13:01:36.448Z,5.72
2017-11-03T13:04:03.993Z,6.55
2017-11-03T13:06:31.553Z,6.00
2017-11-03T13:08:59.114Z,5.57
2017-11-03T13:11:26.648Z,6.07
2017-11-03T13:13:54.981Z,5.95
2017-11-03T13:16:22.547Z,6.03
2017-11-03T13:18:50.089Z,6.00
2017-11-03T13:21:17.645Z,7.07
2017-11-03T13:23:45.189Z,7.30
2017-11-03T13:26:12.765Z,6.87
2017-11-03T13:28:40.309Z,7.35
2017-11-03T13:31:07.878Z,7.63
2017-11-03T13:33:36.218Z,7.12
2017-11-03T13:36:03.776Z,7.20
2017-11-03T13:38:31.311Z,8.40
2017-11-03T13:40:58.885Z,7.50
2017-11-03T13:43:27.243Z,8.30
2017-11-03T13:45:54.788Z,7.70
2017-11-03T13:48:22.363Z,6.90
2017-11-03T13:50:49.921Z,7.70
2017-11-03T13:53:17.492Z,8.20
2017-11-03T13:55:45.033Z,8.70
2017-11-03T13:58:12.579Z,7.85
2017-11-03T14:00:40.149Z,8.88
2017-11-03T14:03:07.690Z,7.93
2017-11-03T14:05:35.282Z,7.80
2017-11-03T14:08:02.830Z,7.73
2017-11-03T14:10:30.400Z,7.67
2017-11-03T14:12:57.953Z,7.23
2017-11-03T14:15:25.478Z,6.93
2017-11-03T14:17:53.028Z,7.33
2017-11-03T14:20:21.367Z,7.60
2017-11-03T14:22:48.933Z,7.77
2017-11-03T14:25:16.484Z,6.70
2017-11-03T14:27:44.174Z,8.07
2017-11-03T14:30:11.709Z,6.70
2017-11-03T14:32:39.241Z,8.10
2017-11-03T14:35:06.799Z,7.43
2017-11-03T14:37:34.357Z,6.80
2017-11-03T14:40:02.039Z,5.73
2017-11-03T14:42:29.849Z,7.10
2017-11-03T14:44:58.190Z,6.43
2017-11-03T14:47:25.739Z,7.30
2017-11-03T14:49:53.404Z,7.00
2017-11-03T14:52:20.943Z,7.30
2017-11-03T14:54:48.473Z,5.47
2017-11-03T14:57:16.037Z,7.13
2017-11-03T14:59:43.566Z,6.90
2017-11-03T15:02:11.892Z,7.73
2017-11-03T15:04:39.439Z,7.03
2017-11-03T15:07:06.995Z,6.77
2017-11-03T15:09:34.558Z,7.53
2017-11-03T15:12:02.119Z,8.07
2017-11-03T15:14:29.666Z,7.33
2017-11-03T15:16:57.207Z,7.83
2017-11-03T15:19:25.521Z,8.37
2017-11-03T15:21:53.060Z,8.13
2017-11-03T15:24:20.630Z,7.90
2017-11-03T15:26:49.121Z,7.70
2017-11-03T15:29:16.702Z,9.00
2017-11-03T15:31:44.242Z,9.90
2017-11-03T15:34:11.802Z,8.50
2017-11-03T15:36:39.367Z,7.93
2017-11-03T15:39:07.076Z,7.82
2017-11-03T15:41:34.789Z,8.35
2017-11-03T15:44:02.321Z,8.10
2017-11-03T15:46:29.896Z,8.40
2017-11-03T15:48:57.432Z,9.50
2017-11-03T15:51:24.993Z,9.82
2017-11-03T15:53:52.555Z,8.70
2017-11-03T15:56:20.117Z,9.50
2017-11-03T15:58:47.659Z,8.85
2017-11-03T16:01:16.022Z,8.65
2017-11-03T16:03:43.580Z,9.10
2017-11-03T16:06:11.120Z,9.75
2017-11-03T16:08:38.673Z,9.05
2017-11-03T16:11:06.228Z,10.13
2017-11-03T16:13:33.791Z,9.45
2017-11-03T16:16:01.313Z,9.80
2017-11-03T16:18:28.872Z,8.65
2017-11-03T16:20:56.453Z,8.50
2017-11-03T16:23:23.992Z,8.35
2017-11-03T16:25:51.569Z,9.25
2017-11-03T16:28:19.111Z,8.65
2017-11-03T16:30:46.694Z,8.77
2017-11-03T16:33:14.226Z,9.18
2017-11-03T16:35:42.533Z,10.07
2017-11-03T16:38:10.090Z,10.10
2017-11-03T16:40:37.625Z,9.90
2017-11-03T16:43:05.402Z,9.82
2017-11-03T16:45:32.957Z,9.00
2017-11-03T16:48:00.525Z,9.50
2017-11-03T16:50:28.071Z,9.65
2017-11-03T16:52:55.637Z,9.50
2017-11-03T16:55:23.177Z,8.40
2017-11-03T16:57:51.509Z,9.13
2017-11-03T17:00:19.976Z,10.10
2017-11-03T17:02:47.640Z,10.20
2017-11-03T17:05:15.180Z,10.18
2017-11-03T17:07:42.745Z,10.88
2017-11-03T17:10:10.278Z,10.50
2017-11-03T17:12:38.617Z,11.23
2017-11-03T17:15:06.188Z,10.45
2017-11-03T17:17:33.733Z,10.40
2017-11-03T17:20:01.306Z,11.10
2017-11-03T17:22:29.612Z,11.63
2017-11-03T17:24:57.173Z,13.18
2017-11-03T17:27:24.723Z,10.32
2017-11-03T17:29:53.628Z,11.35
2017-11-03T17:32:21.166Z,10.55
2017-11-03T17:34:48.705Z,10.07
2017-11-03T17:37:17.908Z,11.70
2017-11-03T17:39:46.208Z,11.43
2017-11-03T17:42:13.773Z,10.90
2017-11-03T17:44:42.082Z,10.57
2017-11-03T17:47:09.643Z,12.55
2017-11-03T17:49:37.954Z,11.63
2017-11-03T17:52:05.660Z,12.57
2017-11-03T17:54:33.301Z,10.82
2017-11-03T17:57:00.959Z,10.85
2017-11-03T17:59:28.505Z,12.18
2017-11-03T18:01:56.105Z,11.30
2017-11-03T18:04:23.634Z,11.35
2017-11-03T18:06:51.982Z,11.65
2017-11-03T18:09:19.538Z,11.73
2017-11-03T18:11:47.098Z,11.40
2017-11-03T18:14:14.669Z,11.73
2017-11-03T18:16:42.969Z,11.60
2017-11-03T18:19:10.540Z,13.60
2017-11-03T18:21:38.073Z,10.93
2017-11-03T18:24:06.366Z,11.80
2017-11-03T18:26:33.949Z,11.80
2017-11-03T18:29:01.489Z,11.80
2017-11-03T18:31:29.072Z,12.55
2017-11-03T18:33:58.518Z,12.48
2017-11-03T18:36:26.128Z,11.73
2017-11-03T18:38:54.021Z,13.55
2017-11-03T18:41:22.429Z,12.85
2017-11-03T18:43:49.985Z,12.20
2017-11-03T18:46:17.552Z,11.98
2017-11-03T18:48:45.097Z,12.43
2017-11-03T18:51:13.418Z,13.02
2017-11-03T18:53:40.963Z,12.90
2017-11-03T18:56:08.523Z,12.05
2017-11-03T18:58:36.085Z,11.75
2017-11-03T19:01:03.645Z,11.27
2017-11-03T19:03:31.306Z,12.65
2017-11-03T19:05:58.877Z,12.48
2017-11-03T19:08:26.426Z,14.82
2017-11-03T19:10:53.960Z,13.48
2017-11-03T19:13:21.545Z,13.40
2017-11-03T19:15:49.110Z,14.00
2017-11-03T19:18:16.654Z,13.52
2017-11-03T19:20:44.188Z,11.77
2017-11-03T19:23:12.522Z,12.85
2017-11-03T19:25:40.058Z,12.90
2017-11-03T19:28:07.602Z,12.57
2017-11-03T19:30:35.148Z,12.60
2017-11-03T19:33:02.703Z,13.25
2017-11-03T19:35:31.045Z,12.18
2017-11-03T19:37:58.618Z,12.85
2017-11-03T19:40:26.925Z,11.38
2017-11-03T19:42:55.217Z,11.98
2017-11-03T19:45:23.526Z,12.13
2017-11-03T19:47:51.177Z,11.48
2017-11-03T19:50:18.722Z,11.77
2017-11-03T19:52:46.398Z,11.45
2017-11-03T19:55:13.939Z,12.77
2017-11-03T19:57:41.497Z,11.82
2017-11-03T20:00:09.021Z,12.35
2017-11-03T20:02:38.182Z,12.43
2017-11-03T20:05:05.721Z,13.48
2017-11-03T20:07:33.273Z,13.73
2017-11-03T20:10:00.807Z,14.48
2017-11-03T20:12:29.112Z,14.98
2017-11-03T20:14:56.792Z,13.00
2017-11-03T20:17:24.334Z,13.25
2017-11-03T20:19:51.891Z,13.35
2017-11-03T20:22:20.326Z,14.85
2017-11-03T20:24:47.859Z,17.52
2017-11-03T20:27:15.399Z,17.45
2017-11-03T20:29:42.969Z,18.65
2017-11-03T20:32:10.506Z,15.73
2017-11-03T20:34:38.064Z,18.17
2017-11-03T20:37:05.642Z,16.70
2017-11-03T20:39:33.201Z,16.50
2017-11-03T20:42:00.737Z,17.65
2017-11-03T20:44:28.265Z,15.82
2017-11-03T20:46:56.625Z,14.07
2017-11-03T20:49:24.155Z,15.15
2017-11-03T20:51:51.713Z,16.33
2017-11-03T20:54:19.249Z,16.12
2017-11-03T20:56:46.826Z,16.58
2017-11-03T20:59:15.244Z,18.48
2017-11-03T21:01:42.802Z,16.20
2017-11-03T21:04:10.355Z,19.62
2017-11-03T21:06:37.891Z,16.45
2017-11-03T21:09:06.237Z,16.95
2017-11-03T21:11:33.794Z,17.30
2017-11-03T21:14:01.351Z,16.83
2017-11-03T21:16:28.879Z,17.42
2017-11-03T21:18:56.445Z,15.82
2017-11-03T21:21:23.985Z,16.27
2017-11-03T21:23:51.530Z,19.95
2017-11-03T21:26:19.854Z,16.27
2017-11-03T21:28:47.400Z,16.33
2017-11-03T21:31:14.960Z,17.77
2017-11-03T21:33:42.507Z,18.65
2017-11-03T21:36:10.084Z,19.25
2017-11-03T21:38:37.639Z,18.08
2017-11-03T21:41:05.186Z,20.88
2017-11-03T21:43:32.717Z,17.52
2017-11-03T21:46:01.142Z,18.73
2017-11-03T21:48:28.686Z,20.83
2017-11-03T21:50:56.376Z,18.95
2017-11-03T21:53:23.924Z,18.37
2017-11-03T21:55:51.461Z,19.75
2017-11-03T21:58:19.022Z,19.25
2017-11-03T22:00:46.550Z,17.95
2017-11-03T22:03:14.884Z,19.50
2017-11-03T22:05:42.457Z,17.50
2017-11-03T22:08:09.986Z,18.40
2017-11-03T22:10:37.537Z,17.20
2017-11-03T22:13:05.840Z,20.02
2017-11-03T22:15:33.378Z,19.58
2017-11-03T22:18:00.924Z,18.05
2017-11-03T22:20:29.235Z,17.55
2017-11-03T22:22:56.795Z,17.52
2017-11-03T22:25:24.341Z,21.17
2017-11-03T22:27:51.917Z,19.55
2017-11-03T22:30:19.457Z,18.62
2017-11-03T22:32:47.021Z,19.00
2017-11-03T22:35:14.557Z,22.90
2017-11-03T22:37:42.117Z,20.08
2017-11-03T22:40:10.433Z,21.67
2017-11-03T22:42:37.975Z,19.50
2017-11-03T22:45:05.542Z,19.58
2017-11-03T22:47:33.073Z,16.58
2017-11-03T22:50:00.596Z,19.20
2017-11-03T22:52:28.138Z,17.10
2017-11-03T22:54:55.666Z,16.15
2017-11-03T22:57:23.219Z,16.95
2017-11-03T22:59:50.780Z,16.70
2017-11-03T23:02:18.325Z,18.90
2017-11-03T23:04:45.875Z,18.60
2017-11-03T23:07:14.207Z,18.20
2017-11-03T23:09:41.744Z,18.42
2017-11-03T23:12:09.276Z,23.02
2017-11-03T23:14:36.876Z,24.10
2017-11-03T23:17:04.466Z,22.87
2017-11-03T23:19:32.022Z,21.95
2017-11-03T23:22:01.516Z,21.95
2017-11-03T23:24:29.067Z,21.50
2017-11-03T23:26:56.596Z,20.65
2017-11-03T23:29:24.149Z,21.87
2017-11-03T23:31:51.690Z,20.20
2017-11-03T23:34:19.241Z,20.37
2017-11-03T23:36:46.784Z,19.70
2017-11-03T23:39:14.359Z,20.95
2017-11-03T23:41:41.902Z,21.73
2017-11-03T23:44:09.429Z,18.27
2017-11-03T23:46:37.744Z,20.23
2017-11-03T23:49:05.280Z,18.55
2017-11-03T23:51:32.849Z,19.08
2017-11-03T23:54:00.393Z,16.48
2017-11-03T23:56:28.558Z,18.48
2017-11-03T23:58:56.887Z,19.05
